sensor_id;sensor_type;location;lat;lon;timestamp;pressure;altitude;pressure_sealevel;temperature;humidity
72855;BME280;60991;51.278;22.550;2023-02-23T00:00:11;99572.13;;;2.78;65.68
72855;BME280;60991;51.278;22.550;2023-02-23T00:01:41;99568.69;;;2.77;65.42
72855;BME280;60991;51.278;22.550;2023-02-23T00:03:11;99564.16;;;2.86;64.99
72855;BME280;60991;51.278;22.550;2023-02-23T00:04:41;99555.00;;;2.82;65.56
72855;BME280;60991;51.278;22.550;2023-02-23T00:06:12;99567.06;;;2.76;65.28
72855;BME280;60991;51.278;22.550;2023-02-23T00:07:43;99558.00;;;2.79;65.14
72855;BME280;60991;51.278;22.550;2023-02-23T00:09:13;99561.09;;;2.68;65.43
72855;BME280;60991;51.278;22.550;2023-02-23T00:10:44;99570.03;;;2.73;65.81
72855;BME280;60991;51.278;22.550;2023-02-23T00:12:14;99573.47;;;2.74;65.46
72855;BME280;60991;51.278;22.550;2023-02-23T00:13:46;99564.63;;;2.75;65.47
72855;BME280;60991;51.278;22.550;2023-02-23T00:15:17;99571.91;;;2.79;64.97
72855;BME280;60991;51.278;22.550;2023-02-23T00:16:47;99564.69;;;2.82;65.22
72855;BME280;60991;51.278;22.550;2023-02-23T00:18:17;99560.34;;;2.89;64.94
72855;BME280;60991;51.278;22.550;2023-02-23T00:19:47;99567.94;;;2.84;64.86
72855;BME280;60991;51.278;22.550;2023-02-23T00:21:23;99574.94;;;2.76;65.22
72855;BME280;60991;51.278;22.550;2023-02-23T00:22:57;99571.41;;;2.69;65.22
72855;BME280;60991;51.278;22.550;2023-02-23T00:24:27;99572.03;;;2.71;65.23
72855;BME280;60991;51.278;22.550;2023-02-23T00:25:57;99567.31;;;2.82;65.04
72855;BME280;60991;51.278;22.550;2023-02-23T00:27:28;99570.50;;;2.77;64.99
72855;BME280;60991;51.278;22.550;2023-02-23T00:28:58;99574.34;;;2.81;64.86
72855;BME280;60991;51.278;22.550;2023-02-23T00:30:29;99567.94;;;2.84;64.68
72855;BME280;60991;51.278;22.550;2023-02-23T00:31:59;99563.97;;;2.88;64.36
72855;BME280;60991;51.278;22.550;2023-02-23T00:33:30;99565.50;;;2.82;65.01
72855;BME280;60991;51.278;22.550;2023-02-23T00:35:00;99568.56;;;2.86;64.40
72855;BME280;60991;51.278;22.550;2023-02-23T00:36:34;99567.13;;;2.83;65.24
72855;BME280;60991;51.278;22.550;2023-02-23T00:38:04;99568.22;;;2.89;64.28
72855;BME280;60991;51.278;22.550;2023-02-23T00:39:34;99565.78;;;2.87;64.66
72855;BME280;60991;51.278;22.550;2023-02-23T00:41:10;99564.97;;;2.87;64.62
72855;BME280;60991;51.278;22.550;2023-02-23T00:42:44;99571.47;;;2.91;64.46
72855;BME280;60991;51.278;22.550;2023-02-23T00:44:15;99564.78;;;2.88;64.17
72855;BME280;60991;51.278;22.550;2023-02-23T00:45:45;99565.94;;;2.86;64.43
72855;BME280;60991;51.278;22.550;2023-02-23T00:47:15;99575.81;;;2.84;64.45
72855;BME280;60991;51.278;22.550;2023-02-23T00:48:47;99561.06;;;2.83;64.68
72855;BME280;60991;51.278;22.550;2023-02-23T00:50:18;99563.16;;;2.87;64.79
72855;BME280;60991;51.278;22.550;2023-02-23T00:51:48;99570.22;;;2.72;65.42
72855;BME280;60991;51.278;22.550;2023-02-23T00:53:18;99573.56;;;2.66;65.13
72855;BME280;60991;51.278;22.550;2023-02-23T00:54:48;99573.22;;;2.69;64.86
72855;BME280;60991;51.278;22.550;2023-02-23T00:56:18;99567.97;;;2.69;65.21
72855;BME280;60991;51.278;22.550;2023-02-23T00:59:29;99569.06;;;2.74;65.36
72855;BME280;60991;51.278;22.550;2023-02-23T01:00:59;99570.03;;;2.73;64.75
72855;BME280;60991;51.278;22.550;2023-02-23T01:02:30;99576.63;;;2.69;65.77
72855;BME280;60991;51.278;22.550;2023-02-23T01:04:01;99574.09;;;2.61;66.05
72855;BME280;60991;51.278;22.550;2023-02-23T01:05:33;99571.94;;;2.65;65.72
72855;BME280;60991;51.278;22.550;2023-02-23T01:07:04;99570.75;;;2.67;65.25
72855;BME280;60991;51.278;22.550;2023-02-23T01:08:36;99572.38;;;2.68;65.76
72855;BME280;60991;51.278;22.550;2023-02-23T01:10:07;99580.72;;;2.72;65.70
72855;BME280;60991;51.278;22.550;2023-02-23T01:11:38;99570.31;;;2.64;65.23
72855;BME280;60991;51.278;22.550;2023-02-23T01:13:09;99575.81;;;2.69;65.37
72855;BME280;60991;51.278;22.550;2023-02-23T01:14:40;99575.75;;;2.77;65.40
72855;BME280;60991;51.278;22.550;2023-02-23T01:16:13;99570.59;;;2.69;64.75
72855;BME280;60991;51.278;22.550;2023-02-23T01:17:43;99567.69;;;2.64;65.69
72855;BME280;60991;51.278;22.550;2023-02-23T01:19:14;99569.78;;;2.68;65.12
72855;BME280;60991;51.278;22.550;2023-02-23T01:20:45;99577.09;;;2.73;65.04
72855;BME280;60991;51.278;22.550;2023-02-23T01:22:15;99575.81;;;2.69;65.29
72855;BME280;60991;51.278;22.550;2023-02-23T01:23:45;99579.25;;;2.69;64.64
72855;BME280;60991;51.278;22.550;2023-02-23T01:25:17;99571.69;;;2.60;65.26
72855;BME280;60991;51.278;22.550;2023-02-23T01:26:47;99572.69;;;2.59;64.53
72855;BME280;60991;51.278;22.550;2023-02-23T01:28:18;99567.63;;;2.57;64.48
72855;BME280;60991;51.278;22.550;2023-02-23T01:29:48;99569.25;;;2.58;64.36
72855;BME280;60991;51.278;22.550;2023-02-23T01:31:20;99575.09;;;2.46;64.40
72855;BME280;60991;51.278;22.550;2023-02-23T01:32:50;99568.88;;;2.47;64.56
72855;BME280;60991;51.278;22.550;2023-02-23T01:34:20;99569.78;;;2.54;64.01
72855;BME280;60991;51.278;22.550;2023-02-23T01:35:58;99573.81;;;2.41;64.08
72855;BME280;60991;51.278;22.550;2023-02-23T01:37:30;99572.03;;;2.42;63.74
72855;BME280;60991;51.278;22.550;2023-02-23T01:39:00;99572.22;;;2.40;63.59
72855;BME280;60991;51.278;22.550;2023-02-23T01:40:31;99577.19;;;2.35;63.41
72855;BME280;60991;51.278;22.550;2023-02-23T01:42:01;99571.03;;;2.43;63.06
72855;BME280;60991;51.278;22.550;2023-02-23T01:43:32;99571.94;;;2.35;62.59
72855;BME280;60991;51.278;22.550;2023-02-23T01:45:23;99571.03;;;2.43;62.17
72855;BME280;60991;51.278;22.550;2023-02-23T01:46:54;99561.53;;;2.42;61.65
72855;BME280;60991;51.278;22.550;2023-02-23T01:48:29;99564.16;;;2.42;61.74
72855;BME280;60991;51.278;22.550;2023-02-23T01:50:01;99566.97;;;2.55;61.59
72855;BME280;60991;51.278;22.550;2023-02-23T01:51:58;99560.81;;;2.48;61.09
72855;BME280;60991;51.278;22.550;2023-02-23T01:53:29;99558.38;;;2.47;61.49
72855;BME280;60991;51.278;22.550;2023-02-23T01:55:02;99558.28;;;2.25;61.20
72855;BME280;60991;51.278;22.550;2023-02-23T01:56:35;99554.66;;;2.26;61.12
72855;BME280;60991;51.278;22.550;2023-02-23T01:58:12;99552.44;;;2.38;61.09
72855;BME280;60991;51.278;22.550;2023-02-23T01:59:48;99554.78;;;2.33;60.61
72855;BME280;60991;51.278;22.550;2023-02-23T02:01:18;99558.84;;;2.35;60.28
72855;BME280;60991;51.278;22.550;2023-02-23T02:02:49;99545.66;;;2.43;60.52
72855;BME280;60991;51.278;22.550;2023-02-23T02:04:20;99548.53;;;2.49;60.75
72855;BME280;60991;51.278;22.550;2023-02-23T02:05:52;99543.13;;;2.50;60.66
72855;BME280;60991;51.278;22.550;2023-02-23T02:07:25;99547.03;;;2.39;60.65
72855;BME280;60991;51.278;22.550;2023-02-23T02:09:01;99543.03;;;2.29;60.61
72855;BME280;60991;51.278;22.550;2023-02-23T02:10:32;99548.91;;;2.31;60.94
72855;BME280;60991;51.278;22.550;2023-02-23T02:12:02;99548.81;;;2.24;60.67
72855;BME280;60991;51.278;22.550;2023-02-23T02:13:33;99551.25;;;2.26;60.20
72855;BME280;60991;51.278;22.550;2023-02-23T02:15:05;99547.56;;;2.35;60.06
72855;BME280;60991;51.278;22.550;2023-02-23T02:17:42;99550.63;;;2.38;60.73
72855;BME280;60991;51.278;22.550;2023-02-23T02:19:05;99543.84;;;2.44;60.16
72855;BME280;60991;51.278;22.550;2023-02-23T02:21:05;99546.56;;;2.51;59.79
72855;BME280;60991;51.278;22.550;2023-02-23T02:23:07;99547.19;;;2.53;59.66
72855;BME280;60991;51.278;22.550;2023-02-23T02:27:07;99550.72;;;2.60;59.66
72855;BME280;60991;51.278;22.550;2023-02-23T02:30:40;99550.78;;;2.66;60.00
72855;BME280;60991;51.278;22.550;2023-02-23T02:32:24;99554.41;;;2.65;59.54
72855;BME280;60991;51.278;22.550;2023-02-23T02:34:44;99552.25;;;2.69;59.96
72855;BME280;60991;51.278;22.550;2023-02-23T02:38:50;99553.53;;;2.58;59.65
72855;BME280;60991;51.278;22.550;2023-02-23T02:40:31;99550.44;;;2.55;60.40
72855;BME280;60991;51.278;22.550;2023-02-23T02:42:18;99552.97;;;2.48;60.22
72855;BME280;60991;51.278;22.550;2023-02-23T02:43:58;99557.84;;;2.51;60.69
72855;BME280;60991;51.278;22.550;2023-02-23T02:45:50;99550.16;;;2.50;60.77
72855;BME280;60991;51.278;22.550;2023-02-23T02:47:32;99548.91;;;2.46;60.85
72855;BME280;60991;51.278;22.550;2023-02-23T02:49:28;99547.56;;;2.50;60.37
72855;BME280;60991;51.278;22.550;2023-02-23T02:51:07;99549.00;;;2.52;60.35
72855;BME280;60991;51.278;22.550;2023-02-23T02:52:50;99555.34;;;2.58;60.37
72855;BME280;60991;51.278;22.550;2023-02-23T02:55:57;99555.13;;;2.44;60.66
72855;BME280;60991;51.278;22.550;2023-02-23T02:57:31;99555.22;;;2.51;59.96
72855;BME280;60991;51.278;22.550;2023-02-23T02:59:02;99551.44;;;2.54;60.39
72855;BME280;60991;51.278;22.550;2023-02-23T03:00:38;99550.81;;;2.52;60.53
72855;BME280;60991;51.278;22.550;2023-02-23T03:02:15;99550.00;;;2.51;60.03
72855;BME280;60991;51.278;22.550;2023-02-23T03:03:46;99551.97;;;2.49;60.56
72855;BME280;60991;51.278;22.550;2023-02-23T03:05:44;99551.97;;;2.34;60.44
72855;BME280;60991;51.278;22.550;2023-02-23T03:07:19;99551.97;;;2.34;60.54
72855;BME280;60991;51.278;22.550;2023-02-23T03:09:24;99552.97;;;2.33;60.24
72855;BME280;60991;51.278;22.550;2023-02-23T03:11:03;99552.44;;;2.38;60.57
72855;BME280;60991;51.278;22.550;2023-02-23T03:12:48;99546.91;;;2.33;60.88
72855;BME280;60991;51.278;22.550;2023-02-23T03:14:32;99548.44;;;2.27;60.16
72855;BME280;60991;51.278;22.550;2023-02-23T03:16:15;99549.06;;;2.15;61.34
72855;BME280;60991;51.278;22.550;2023-02-23T03:21:56;99552.34;;;2.17;61.22
72855;BME280;60991;51.278;22.550;2023-02-23T03:23:44;99554.50;;;2.28;60.47
72855;BME280;60991;51.278;22.550;2023-02-23T03:25:58;99549.53;;;2.18;61.21
72855;BME280;60991;51.278;22.550;2023-02-23T03:27:38;99558.22;;;2.19;60.74
72855;BME280;60991;51.278;22.550;2023-02-23T03:29:19;99552.69;;;2.14;60.72
72855;BME280;60991;51.278;22.550;2023-02-23T03:31:09;99552.16;;;2.18;60.95
72855;BME280;60991;51.278;22.550;2023-02-23T03:32:47;99561.19;;;2.16;60.84
72855;BME280;60991;51.278;22.550;2023-02-23T03:34:29;99556.75;;;2.16;61.24
72855;BME280;60991;51.278;22.550;2023-02-23T03:36:09;99554.19;;;2.08;61.22
72855;BME280;60991;51.278;22.550;2023-02-23T03:37:48;99552.50;;;2.15;61.39
72855;BME280;60991;51.278;22.550;2023-02-23T03:41:07;99556.22;;;2.21;60.60
72855;BME280;60991;51.278;22.550;2023-02-23T03:42:41;99552.97;;;2.19;60.54
72855;BME280;60991;51.278;22.550;2023-02-23T03:44:17;99552.97;;;2.04;60.68
72855;BME280;60991;51.278;22.550;2023-02-23T03:45:51;99554.03;;;2.09;61.27
72855;BME280;60991;51.278;22.550;2023-02-23T03:47:27;99552.13;;;2.03;60.96
72855;BME280;60991;51.278;22.550;2023-02-23T03:49:00;99553.38;;;2.07;60.73
72855;BME280;60991;51.278;22.550;2023-02-23T03:50:37;99555.56;;;2.04;60.71
72855;BME280;60991;51.278;22.550;2023-02-23T03:52:15;99551.13;;;2.04;61.47
72855;BME280;60991;51.278;22.550;2023-02-23T03:53:54;99548.25;;;1.99;61.33
72855;BME280;60991;51.278;22.550;2023-02-23T03:55:31;99549.13;;;2.06;60.93
72855;BME280;60991;51.278;22.550;2023-02-23T03:57:04;99554.13;;;2.16;60.84
72855;BME280;60991;51.278;22.550;2023-02-23T03:58:39;99554.13;;;2.16;60.63
72855;BME280;60991;51.278;22.550;2023-02-23T04:00:19;99553.56;;;2.06;61.23
72855;BME280;60991;51.278;22.550;2023-02-23T04:01:52;99544.28;;;2.03;61.12
72855;BME280;60991;51.278;22.550;2023-02-23T04:03:25;99546.09;;;2.03;61.31
72855;BME280;60991;51.278;22.550;2023-02-23T04:04:58;99541.22;;;2.00;60.84
72855;BME280;60991;51.278;22.550;2023-02-23T04:06:35;99542.19;;;1.99;61.49
72855;BME280;60991;51.278;22.550;2023-02-23T04:08:11;99540.91;;;1.95;61.82
72855;BME280;60991;51.278;22.550;2023-02-23T04:09:43;99545.88;;;2.04;61.23
72855;BME280;60991;51.278;22.550;2023-02-23T04:11:28;99544.28;;;2.03;60.68
72855;BME280;60991;51.278;22.550;2023-02-23T04:13:05;99544.53;;;2.08;60.77
72855;BME280;60991;51.278;22.550;2023-02-23T04:15:04;99541.28;;;2.06;61.11
72855;BME280;60991;51.278;22.550;2023-02-23T04:16:38;99549.25;;;2.13;60.51
72855;BME280;60991;51.278;22.550;2023-02-23T04:18:13;99550.88;;;2.14;60.78
72855;BME280;60991;51.278;22.550;2023-02-23T04:19:51;99544.81;;;2.14;60.34
72855;BME280;60991;51.278;22.550;2023-02-23T04:21:21;99550.59;;;2.09;60.65
72855;BME280;60991;51.278;22.550;2023-02-23T04:22:52;99549.59;;;2.10;60.93
72855;BME280;60991;51.278;22.550;2023-02-23T04:24:22;99547.50;;;2.05;61.12
72855;BME280;60991;51.278;22.550;2023-02-23T04:25:53;99547.72;;;2.04;60.58
72855;BME280;60991;51.278;22.550;2023-02-23T04:27:24;99544.91;;;2.05;61.30
72855;BME280;60991;51.278;22.550;2023-02-23T04:28:54;99545.72;;;2.06;60.80
72855;BME280;60991;51.278;22.550;2023-02-23T04:30:24;99555.56;;;2.04;61.10
72855;BME280;60991;51.278;22.550;2023-02-23T04:31:54;99549.78;;;2.08;61.03
72855;BME280;60991;51.278;22.550;2023-02-23T04:33:25;99543.09;;;2.06;61.29
72855;BME280;60991;51.278;22.550;2023-02-23T04:34:55;99554.84;;;2.10;60.67
72855;BME280;60991;51.278;22.550;2023-02-23T04:36:25;99547.81;;;2.11;60.84
72855;BME280;60991;51.278;22.550;2023-02-23T04:37:56;99543.28;;;2.04;60.96
72855;BME280;60991;51.278;22.550;2023-02-23T04:39:27;99545.53;;;1.93;61.39
72855;BME280;60991;51.278;22.550;2023-02-23T04:40:57;99549.06;;;2.00;60.71
72855;BME280;60991;51.278;22.550;2023-02-23T04:42:27;99543.09;;;2.06;60.52
72855;BME280;60991;51.278;22.550;2023-02-23T04:43:57;99553.03;;;2.11;60.66
72855;BME280;60991;51.278;22.550;2023-02-23T04:45:28;99549.59;;;2.10;60.64
72855;BME280;60991;51.278;22.550;2023-02-23T04:46:58;99545.06;;;1.89;61.39
72855;BME280;60991;51.278;22.550;2023-02-23T04:48:28;99544.06;;;1.90;60.68
72855;BME280;60991;51.278;22.550;2023-02-23T04:49:58;99545.88;;;1.90;61.36
72855;BME280;60991;51.278;22.550;2023-02-23T04:51:28;99549.75;;;1.94;61.38
72855;BME280;60991;51.278;22.550;2023-02-23T04:52:59;99550.88;;;1.99;60.63
72855;BME280;60991;51.278;22.550;2023-02-23T04:54:29;99552.31;;;2.02;61.17
72855;BME280;60991;51.278;22.550;2023-02-23T04:55:59;99549.53;;;2.03;60.93
72855;BME280;60991;51.278;22.550;2023-02-23T04:57:29;99551.75;;;1.92;61.30
72855;BME280;60991;51.278;22.550;2023-02-23T04:59:00;99552.13;;;2.03;60.78
72855;BME280;60991;51.278;22.550;2023-02-23T05:00:30;99554.66;;;2.12;60.88
72855;BME280;60991;51.278;22.550;2023-02-23T05:02:00;99558.56;;;2.16;60.27
72855;BME280;60991;51.278;22.550;2023-02-23T05:03:31;99555.94;;;2.16;60.56
72855;BME280;60991;51.278;22.550;2023-02-23T05:05:01;99555.00;;;2.08;60.88
72855;BME280;60991;51.278;22.550;2023-02-23T05:06:31;99550.88;;;1.99;61.49
72855;BME280;60991;51.278;22.550;2023-02-23T05:08:01;99547.16;;;2.08;60.50
72855;BME280;60991;51.278;22.550;2023-02-23T05:09:32;99548.78;;;1.95;61.06
72855;BME280;60991;51.278;22.550;2023-02-23T05:11:02;99553.31;;;2.01;61.55
72855;BME280;60991;51.278;22.550;2023-02-23T05:12:32;99552.69;;;2.14;60.79
72855;BME280;60991;51.278;22.550;2023-02-23T05:14:02;99556.75;;;2.16;60.94
72855;BME280;60991;51.278;22.550;2023-02-23T05:15:33;99550.00;;;2.22;60.41
72855;BME280;60991;51.278;22.550;2023-02-23T05:17:03;99555.22;;;2.22;60.55
72855;BME280;60991;51.278;22.550;2023-02-23T05:18:33;99554.94;;;2.17;60.61
72855;BME280;60991;51.278;22.550;2023-02-23T05:20:04;99560.38;;;2.15;61.18
72855;BME280;60991;51.278;22.550;2023-02-23T05:21:34;99554.66;;;2.12;61.03
72855;BME280;60991;51.278;22.550;2023-02-23T05:23:04;99559.72;;;2.13;61.14
72855;BME280;60991;51.278;22.550;2023-02-23T05:24:35;99552.97;;;2.04;61.24
72855;BME280;60991;51.278;22.550;2023-02-23T05:26:10;99559.44;;;2.08;61.76
72855;BME280;60991;51.278;22.550;2023-02-23T05:27:40;99561.34;;;2.14;61.19
72855;BME280;60991;51.278;22.550;2023-02-23T05:29:11;99559.84;;;2.20;61.41
72855;BME280;60991;51.278;22.550;2023-02-23T05:30:41;99564.91;;;2.21;60.53
72855;BME280;60991;51.278;22.550;2023-02-23T05:32:11;99560.47;;;2.22;61.24
72855;BME280;60991;51.278;22.550;2023-02-23T05:33:42;99563.53;;;2.25;61.02
72855;BME280;60991;51.278;22.550;2023-02-23T05:35:12;99558.91;;;2.13;61.08
72855;BME280;60991;51.278;22.550;2023-02-23T05:36:42;99559.19;;;2.18;61.38
72855;BME280;60991;51.278;22.550;2023-02-23T05:38:12;99562.81;;;2.17;61.09
72855;BME280;60991;51.278;22.550;2023-02-23T05:39:42;99561.81;;;2.18;61.26
72855;BME280;60991;51.278;22.550;2023-02-23T05:41:20;99558.84;;;2.21;61.40
72855;BME280;60991;51.278;22.550;2023-02-23T05:42:57;99565.94;;;2.12;61.16
72855;BME280;60991;51.278;22.550;2023-02-23T05:44:27;99560.59;;;1.91;61.95
72855;BME280;60991;51.278;22.550;2023-02-23T05:45:57;99564.69;;;2.08;61.12
72855;BME280;60991;51.278;22.550;2023-02-23T05:47:29;99558.28;;;2.11;61.81
72855;BME280;60991;51.278;22.550;2023-02-23T05:49:00;99562.16;;;2.15;60.92
72855;BME280;60991;51.278;22.550;2023-02-23T05:50:30;99565.72;;;2.22;61.21
72855;BME280;60991;51.278;22.550;2023-02-23T05:52:00;99567.22;;;2.16;61.03
72855;BME280;60991;51.278;22.550;2023-02-23T05:53:31;99560.88;;;2.11;61.65
72855;BME280;60991;51.278;22.550;2023-02-23T05:55:01;99568.09;;;2.08;61.79
72855;BME280;60991;51.278;22.550;2023-02-23T05:56:31;99568.66;;;2.04;61.37
72855;BME280;60991;51.278;22.550;2023-02-23T05:58:01;99570.47;;;2.03;61.80
72855;BME280;60991;51.278;22.550;2023-02-23T05:59:31;99567.28;;;2.08;61.57
72855;BME280;60991;51.278;22.550;2023-02-23T06:01:02;99568.22;;;2.15;61.62
72855;BME280;60991;51.278;22.550;2023-02-23T06:02:32;99569.56;;;2.11;62.01
72855;BME280;60991;51.278;22.550;2023-02-23T06:04:03;99570.13;;;2.21;61.40
72855;BME280;60991;51.278;22.550;2023-02-23T06:05:33;99576.38;;;2.20;61.72
72855;BME280;60991;51.278;22.550;2023-02-23T06:07:03;99567.50;;;2.21;61.60
72855;BME280;60991;51.278;22.550;2023-02-23T06:08:33;99573.75;;;2.35;60.84
72855;BME280;60991;51.278;22.550;2023-02-23T06:10:04;99576.19;;;2.22;61.49
72855;BME280;60991;51.278;22.550;2023-02-23T06:11:35;99570.47;;;2.18;60.99
72855;BME280;60991;51.278;22.550;2023-02-23T06:13:05;99579.03;;;2.12;61.63
72855;BME280;60991;51.278;22.550;2023-02-23T06:14:35;99567.69;;;2.20;61.28
72855;BME280;60991;51.278;22.550;2023-02-23T06:16:06;99575.72;;;2.18;61.14
72855;BME280;60991;51.278;22.550;2023-02-23T06:17:36;99580.50;;;2.29;61.16
72855;BME280;60991;51.278;22.550;2023-02-23T06:19:06;99583.94;;;2.30;61.32
72855;BME280;60991;51.278;22.550;2023-02-23T06:20:37;99582.41;;;2.35;60.69
72855;BME280;60991;51.278;22.550;2023-02-23T06:22:08;99581.03;;;2.25;61.30
72855;BME280;60991;51.278;22.550;2023-02-23T06:23:38;99582.19;;;2.07;61.47
72855;BME280;60991;51.278;22.550;2023-02-23T06:25:08;99580.41;;;2.23;61.05
72855;BME280;60991;51.278;22.550;2023-02-23T06:26:38;99585.56;;;2.31;60.61
72855;BME280;60991;51.278;22.550;2023-02-23T06:28:09;99583.06;;;2.37;60.29
72855;BME280;60991;51.278;22.550;2023-02-23T06:29:39;99585.31;;;2.40;60.77
72855;BME280;60991;51.278;22.550;2023-02-23T06:31:09;99585.56;;;2.31;60.91
72855;BME280;60991;51.278;22.550;2023-02-23T06:32:39;99585.47;;;2.24;60.64
72855;BME280;60991;51.278;22.550;2023-02-23T06:34:10;99587.47;;;2.22;60.86
72855;BME280;60991;51.278;22.550;2023-02-23T06:35:40;99592.06;;;2.20;60.82
72855;BME280;60991;51.278;22.550;2023-02-23T06:37:10;99589.00;;;2.31;60.56
72855;BME280;60991;51.278;22.550;2023-02-23T06:38:40;99586.22;;;2.33;60.35
72855;BME280;60991;51.278;22.550;2023-02-23T06:40:10;99592.63;;;2.45;60.27
72855;BME280;60991;51.278;22.550;2023-02-23T06:41:41;99590.63;;;2.47;60.26
72855;BME280;60991;51.278;22.550;2023-02-23T06:43:11;99586.31;;;2.54;60.05
72855;BME280;60991;51.278;22.550;2023-02-23T06:44:41;99587.50;;;2.52;60.46
72855;BME280;60991;51.278;22.550;2023-02-23T06:46:11;99586.59;;;2.59;59.98
72855;BME280;60991;51.278;22.550;2023-02-23T06:47:42;99590.28;;;2.50;59.95
72855;BME280;60991;51.278;22.550;2023-02-23T06:49:12;99588.31;;;2.52;60.07
72855;BME280;60991;51.278;22.550;2023-02-23T06:50:42;99583.78;;;2.46;59.83
72855;BME280;60991;51.278;22.550;2023-02-23T06:52:13;99579.06;;;2.41;60.34
72855;BME280;60991;51.278;22.550;2023-02-23T06:53:43;99590.91;;;2.52;60.26
72855;BME280;60991;51.278;22.550;2023-02-23T06:55:14;99578.81;;;2.51;59.66
72855;BME280;60991;51.278;22.550;2023-02-23T06:56:44;99585.41;;;2.47;60.06
72855;BME280;60991;51.278;22.550;2023-02-23T06:58:14;99585.31;;;2.55;60.13
72855;BME280;60991;51.278;22.550;2023-02-23T06:59:45;99578.75;;;2.59;59.47
72855;BME280;60991;51.278;22.550;2023-02-23T07:01:15;99585.41;;;2.47;59.80
72855;BME280;60991;51.278;22.550;2023-02-23T07:02:47;99581.91;;;2.40;60.21
72855;BME280;60991;51.278;22.550;2023-02-23T07:04:17;99588.94;;;2.54;59.61
72855;BME280;60991;51.278;22.550;2023-02-23T07:05:48;99587.22;;;2.47;59.10
72855;BME280;60991;51.278;22.550;2023-02-23T07:07:18;99581.06;;;2.54;58.98
72855;BME280;60991;51.278;22.550;2023-02-23T07:08:48;99589.41;;;2.58;59.47
72855;BME280;60991;51.278;22.550;2023-02-23T07:10:18;99584.41;;;2.63;58.76
72855;BME280;60991;51.278;22.550;2023-02-23T07:11:49;99580.25;;;2.68;58.80
72855;BME280;60991;51.278;22.550;2023-02-23T07:13:19;99578.53;;;2.75;58.50
72855;BME280;60991;51.278;22.550;2023-02-23T07:14:49;99581.16;;;2.75;58.99
72855;BME280;60991;51.278;22.550;2023-02-23T07:16:19;99572.75;;;2.65;58.99
72855;BME280;60991;51.278;22.550;2023-02-23T07:17:58;99575.81;;;2.69;58.83
72855;BME280;60991;51.278;22.550;2023-02-23T07:19:29;99581.00;;;2.77;58.86
72855;BME280;60991;51.278;22.550;2023-02-23T07:20:59;99582.22;;;2.81;58.72
72855;BME280;60991;51.278;22.550;2023-02-23T07:22:30;99584.59;;;2.76;58.65
72855;BME280;60991;51.278;22.550;2023-02-23T07:24:00;99579.06;;;2.86;58.55
72855;BME280;60991;51.278;22.550;2023-02-23T07:25:31;99582.31;;;2.88;58.43
72855;BME280;60991;51.278;22.550;2023-02-23T07:27:01;99587.03;;;2.92;58.03
72855;BME280;60991;51.278;22.550;2023-02-23T07:28:31;99580.66;;;3.01;57.74
72855;BME280;60991;51.278;22.550;2023-02-23T07:30:02;99578.50;;;3.05;58.20
72855;BME280;60991;51.278;22.550;2023-02-23T07:31:32;99583.91;;;3.03;57.38
72855;BME280;60991;51.278;22.550;2023-02-23T07:33:02;99587.34;;;3.04;57.62
72855;BME280;60991;51.278;22.550;2023-02-23T07:34:33;99585.00;;;3.09;57.85
72855;BME280;60991;51.278;22.550;2023-02-23T07:36:03;99574.31;;;3.10;57.34
72855;BME280;60991;51.278;22.550;2023-02-23T07:37:33;99572.63;;;3.03;57.93
72855;BME280;60991;51.278;22.550;2023-02-23T07:39:04;99574.28;;;2.89;57.64
72855;BME280;60991;51.278;22.550;2023-02-23T07:40:34;99584.13;;;2.87;58.06
72855;BME280;60991;51.278;22.550;2023-02-23T07:42:04;99576.97;;;2.81;57.95
72855;BME280;60991;51.278;22.550;2023-02-23T07:43:34;99577.44;;;2.85;57.78
72855;BME280;60991;51.278;22.550;2023-02-23T07:45:05;99573.38;;;2.97;57.68
72855;BME280;60991;51.278;22.550;2023-02-23T07:46:35;99574.41;;;3.02;57.45
72855;BME280;60991;51.278;22.550;2023-02-23T07:48:06;99573.78;;;3.00;57.21
72855;BME280;60991;51.278;22.550;2023-02-23T07:49:36;99571.63;;;3.04;57.63
72855;BME280;60991;51.278;22.550;2023-02-23T07:51:14;99574.97;;;2.98;58.10
72855;BME280;60991;51.278;22.550;2023-02-23T07:52:44;99578.94;;;3.08;57.24
72855;BME280;60991;51.278;22.550;2023-02-23T07:54:14;99580.84;;;3.15;57.07
72855;BME280;60991;51.278;22.550;2023-02-23T07:55:45;99571.38;;;3.20;57.47
72855;BME280;60991;51.278;22.550;2023-02-23T07:57:15;99569.84;;;3.26;56.97
72855;BME280;60991;51.278;22.550;2023-02-23T07:58:45;99571.94;;;3.30;56.94
72855;BME280;60991;51.278;22.550;2023-02-23T08:00:16;99565.91;;;3.36;56.94
72855;BME280;60991;51.278;22.550;2023-02-23T08:01:46;99563.91;;;3.38;56.82
72855;BME280;60991;51.278;22.550;2023-02-23T08:03:19;99565.69;;;3.31;56.42
72855;BME280;60991;51.278;22.550;2023-02-23T08:04:49;99564.38;;;3.06;57.58
72855;BME280;60991;51.278;22.550;2023-02-23T08:06:19;99564.06;;;2.94;57.44
72855;BME280;60991;51.278;22.550;2023-02-23T08:07:49;99557.81;;;2.95;56.93
72855;BME280;60991;51.278;22.550;2023-02-23T08:09:20;99557.69;;;3.03;56.46
72855;BME280;60991;51.278;22.550;2023-02-23T08:10:50;99563.13;;;3.02;56.98
72855;BME280;60991;51.278;22.550;2023-02-23T08:12:20;99561.13;;;3.04;56.98
72855;BME280;60991;51.278;22.550;2023-02-23T08:13:50;99561.84;;;2.98;57.22
72855;BME280;60991;51.278;22.550;2023-02-23T08:15:21;99560.81;;;2.77;57.20
72855;BME280;60991;51.278;22.550;2023-02-23T08:16:51;99564.06;;;2.79;57.33
72855;BME280;60991;51.278;22.550;2023-02-23T08:18:21;99567.16;;;2.68;57.59
72855;BME280;60991;51.278;22.550;2023-02-23T08:19:52;99556.94;;;2.73;57.27
72855;BME280;60991;51.278;22.550;2023-02-23T08:21:22;99552.94;;;2.92;56.71
72855;BME280;60991;51.278;22.550;2023-02-23T08:22:53;99556.69;;;3.04;56.93
72855;BME280;60991;51.278;22.550;2023-02-23T08:24:24;99550.22;;;2.86;57.55
72855;BME280;60991;51.278;22.550;2023-02-23T08:25:55;99546.50;;;2.95;56.97
72855;BME280;60991;51.278;22.550;2023-02-23T08:27:25;99551.03;;;2.86;57.35
72855;BME280;60991;51.278;22.550;2023-02-23T08:28:55;99553.56;;;2.94;57.23